createdAt,value
2023-01-07T00:01:44.405Z,69.34
2023-01-07T00:04:14.244Z,69.90
2023-01-07T00:06:43.074Z,69.64
2023-01-07T00:09:13.413Z,69.84
2023-01-07T00:11:41.468Z,70.18
2023-01-07T00:14:11.072Z,70.10
2023-01-07T00:16:39.685Z,70.03
2023-01-07T00:22:16.701Z,70.63
2023-01-07T00:24:43.774Z,70.14
2023-01-07T00:27:10.684Z,69.93
2023-01-07T00:29:37.764Z,69.86
2023-01-07T00:32:05.013Z,69.49
2023-01-07T00:34:32.637Z,69.89
2023-01-07T00:37:19.628Z,69.76
2023-01-07T00:39:46.872Z,69.56
2023-01-07T00:42:35.260Z,69.13
2023-01-07T00:45:02.489Z,68.74
2023-01-07T00:47:29.470Z,68.84
2023-01-07T00:50:02.958Z,68.75
2023-01-07T00:52:29.915Z,69.12
2023-01-07T00:55:15.431Z,69.33
2023-01-07T00:57:43.955Z,69.25
2023-01-07T01:00:13.997Z,69.21
2023-01-07T01:02:41.707Z,69.55
2023-01-07T01:05:10.299Z,69.13
2023-01-07T01:07:38.379Z,69.07
2023-01-07T01:10:07.612Z,69.12
2023-01-07T01:12:38.142Z,69.24
2023-01-07T01:15:10.124Z,69.74
2023-01-07T01:17:37.679Z,69.40
2023-01-07T01:20:05.890Z,69.14
2023-01-07T01:22:36.055Z,68.75
2023-01-07T01:25:03.926Z,69.44
2023-01-07T01:27:39.167Z,69.04
2023-01-07T01:30:07.796Z,69.09
2023-01-07T01:32:38.308Z,69.36
2023-01-07T01:35:07.030Z,69.40
2023-01-07T01:37:34.051Z,69.11
2023-01-07T01:40:04.110Z,68.83
2023-01-07T01:42:33.424Z,68.66
2023-01-07T01:45:04.481Z,68.89
2023-01-07T01:47:50.428Z,69.17
2023-01-07T01:50:29.937Z,69.12
2023-01-07T01:53:07.964Z,68.70
2023-01-07T01:55:44.755Z,68.41
2023-01-07T01:58:18.362Z,68.68
2023-01-07T02:00:45.579Z,68.43
2023-01-07T02:03:18.497Z,68.69
2023-01-07T02:05:47.315Z,68.39
2023-01-07T02:08:17.531Z,68.20
2023-01-07T02:10:44.575Z,68.54
2023-01-07T02:13:28.325Z,68.43
2023-01-07T02:16:08.529Z,68.07
2023-01-07T02:18:57.465Z,68.16
2023-01-07T02:21:43.129Z,68.09
2023-01-07T02:24:48.297Z,68.71
2023-01-07T02:27:35.737Z,68.65
2023-01-07T02:30:21.215Z,68.72
2023-01-07T02:32:57.368Z,68.09
2023-01-07T02:35:24.446Z,68.35
2023-01-07T02:38:24.603Z,68.69
2023-01-07T02:41:13.434Z,68.30
2023-01-07T02:43:58.118Z,68.05
2023-01-07T02:46:36.767Z,68.15
2023-01-07T02:49:17.517Z,68.11
2023-01-07T02:51:46.278Z,67.68
2023-01-07T02:54:21.782Z,67.44
2023-01-07T02:57:06.876Z,67.76
2023-01-07T03:00:10.833Z,67.92
2023-01-07T03:02:52.516Z,67.77
2023-01-07T03:05:51.166Z,67.99
2023-01-07T03:09:03.782Z,67.69
2023-01-07T03:11:45.678Z,67.88
2023-01-07T03:14:51.591Z,67.94
2023-01-07T03:17:28.187Z,67.80
2023-01-07T03:20:00.045Z,67.74
2023-01-07T03:22:29.929Z,67.81
2023-01-07T03:24:58.402Z,67.95
2023-01-07T03:27:28.963Z,68.08
2023-01-07T03:29:57.124Z,67.95
2023-01-07T03:32:32.789Z,68.08
2023-01-07T03:34:59.914Z,67.77
2023-01-07T03:37:28.759Z,67.97
2023-01-07T03:39:59.215Z,68.27
2023-01-07T03:42:40.300Z,67.63
2023-01-07T03:45:22.016Z,67.67
2023-01-07T03:47:51.702Z,67.83
2023-01-07T03:50:38.291Z,68.04
2023-01-07T03:53:06.433Z,67.41
2023-01-07T03:55:35.727Z,67.81
2023-01-07T03:58:04.143Z,67.56
2023-01-07T04:00:31.103Z,67.92
2023-01-07T04:03:06.139Z,68.36
2023-01-07T04:05:38.165Z,68.05
2023-01-07T04:08:05.461Z,68.07
2023-01-07T04:10:35.970Z,67.98
2023-01-07T04:13:02.948Z,67.97
2023-01-07T04:15:30.498Z,67.83
2023-01-07T04:17:57.722Z,67.97
2023-01-07T04:20:25.627Z,67.62
2023-01-07T04:22:53.830Z,67.65
2023-01-07T04:25:20.779Z,67.48
2023-01-07T04:27:48.195Z,67.54
2023-01-07T04:30:15.373Z,67.74
2023-01-07T04:33:01.922Z,67.79
2023-01-07T04:35:47.618Z,67.33
2023-01-07T04:38:15.703Z,67.42
2023-01-07T04:40:43.116Z,67.52
2023-01-07T04:43:10.493Z,67.33
2023-01-07T04:45:37.596Z,67.43
2023-01-07T04:48:07.457Z,67.45
2023-01-07T04:50:34.664Z,67.38
2023-01-07T04:53:01.763Z,67.50
2023-01-07T04:55:29.269Z,67.49
2023-01-07T04:57:57.162Z,67.24
2023-01-07T05:00:24.347Z,67.98
2023-01-07T05:02:54.269Z,67.62
2023-01-07T05:05:21.896Z,67.53
2023-01-07T05:07:49.282Z,67.63
2023-01-07T05:10:18.524Z,67.70
2023-01-07T05:12:45.876Z,67.73
2023-01-07T05:15:14.604Z,67.14
2023-01-07T05:17:42.580Z,67.35
2023-01-07T05:20:10.383Z,67.12
2023-01-07T05:22:38.865Z,67.04
2023-01-07T05:25:06.278Z,66.75
2023-01-07T05:27:33.327Z,66.60
2023-01-07T05:30:01.090Z,66.66
2023-01-07T05:32:28.285Z,66.59
2023-01-07T05:34:55.744Z,66.49
2023-01-07T05:37:22.956Z,66.50
2023-01-07T05:39:50.787Z,66.51
2023-01-07T05:42:19.704Z,66.30
2023-01-07T05:44:46.961Z,66.56
2023-01-07T05:47:13.921Z,66.44
2023-01-07T05:52:24.975Z,66.42
2023-01-07T05:54:52.105Z,66.28
2023-01-07T05:57:19.139Z,66.40
2023-01-07T05:59:46.050Z,66.40
2023-01-07T06:02:13.066Z,66.29
2023-01-07T06:04:40.141Z,66.36
2023-01-07T06:07:07.229Z,66.06
2023-01-07T06:09:34.323Z,66.22
2023-01-07T06:12:01.369Z,66.23
2023-01-07T06:14:28.459Z,66.15
2023-01-07T06:17:14.091Z,66.19
2023-01-07T06:19:41.032Z,66.46
2023-01-07T06:22:08.011Z,66.46
2023-01-07T06:24:53.968Z,66.72
2023-01-07T06:27:21.009Z,66.59
2023-01-07T06:29:48.000Z,66.59
2023-01-07T06:32:14.967Z,66.65
2023-01-07T06:34:42.120Z,66.46
2023-01-07T06:37:09.186Z,66.36
2023-01-07T06:39:54.713Z,66.51
2023-01-07T06:42:21.705Z,66.43
2023-01-07T06:44:48.785Z,66.56
2023-01-07T06:47:15.787Z,66.53
2023-01-07T06:49:42.756Z,66.59
2023-01-07T06:52:09.691Z,66.67
2023-01-07T06:54:36.792Z,66.57
2023-01-07T06:57:03.820Z,66.81
2023-01-07T06:59:30.792Z,66.81
2023-01-07T07:01:57.797Z,66.62
2023-01-07T07:04:24.766Z,65.81
2023-01-07T07:06:51.752Z,64.96
2023-01-07T07:09:18.587Z,64.81
2023-01-07T07:11:45.567Z,64.78
2023-01-07T07:14:13.961Z,64.75
2023-01-07T07:16:40.902Z,64.96
2023-01-07T07:19:07.945Z,64.90
2023-01-07T07:21:35.339Z,65.25
2023-01-07T07:24:02.289Z,65.21
2023-01-07T07:26:29.235Z,65.19
2023-01-07T07:28:58.496Z,65.28
2023-01-07T07:31:25.444Z,65.08
2023-01-07T07:33:52.564Z,64.62
2023-01-07T07:36:21.799Z,64.26
2023-01-07T07:38:49.111Z,63.53
2023-01-07T07:44:01.015Z,61.04
2023-01-07T07:46:28.396Z,60.66
2023-01-07T07:48:55.329Z,59.35
2023-01-07T07:51:23.335Z,58.68
2023-01-07T07:53:50.774Z,56.67
2023-01-07T07:56:17.824Z,56.35
2023-01-07T07:58:44.728Z,54.89
2023-01-07T08:01:11.725Z,53.70
2023-01-07T08:03:39.059Z,52.33
2023-01-07T08:06:06.466Z,50.72
2023-01-07T08:08:34.177Z,50.44
2023-01-07T08:11:06.139Z,48.39
2023-01-07T08:13:33.269Z,48.10
2023-01-07T08:16:00.326Z,46.78
2023-01-07T08:18:28.334Z,45.56
2023-01-07T08:20:55.906Z,44.56
2023-01-07T08:23:23.246Z,43.90
2023-01-07T08:26:08.835Z,43.25
2023-01-07T08:28:36.845Z,42.51
2023-01-07T08:31:05.890Z,41.60
2023-01-07T08:33:37.817Z,41.65
2023-01-07T08:36:09.350Z,40.18
2023-01-07T08:38:36.704Z,40.32
2023-01-07T08:41:04.164Z,39.19
2023-01-07T08:43:31.337Z,37.96
2023-01-07T08:46:01.941Z,38.28
2023-01-07T08:48:47.446Z,37.32
2023-01-07T08:51:35.252Z,38.73
2023-01-07T08:54:02.457Z,38.96
2023-01-07T08:56:29.562Z,38.46
2023-01-07T08:58:56.878Z,38.67
2023-01-07T09:01:51.039Z,37.59
2023-01-07T09:04:22.735Z,38.73
2023-01-07T09:07:16.148Z,37.53
2023-01-07T09:13:49.985Z,37.16
2023-01-07T09:16:17.746Z,36.81
2023-01-07T09:18:47.719Z,36.25
2023-01-07T09:21:14.751Z,36.23
2023-01-07T09:23:49.305Z,36.10
2023-01-07T09:26:34.613Z,34.93
2023-01-07T09:29:01.709Z,35.49
2023-01-07T09:31:28.741Z,35.41
2023-01-07T09:33:55.827Z,35.26
2023-01-07T09:36:23.567Z,34.74
2023-01-07T09:39:11.995Z,33.79
2023-01-07T09:41:57.993Z,32.51
2023-01-07T09:45:02.416Z,32.40
2023-01-07T09:47:31.234Z,33.28
2023-01-07T09:50:11.379Z,32.75
2023-01-07T09:52:43.835Z,32.58
2023-01-07T09:55:26.034Z,32.18
2023-01-07T09:57:53.450Z,32.39
2023-01-07T10:00:25.061Z,32.40
2023-01-07T10:03:16.461Z,31.77
2023-01-07T10:05:43.425Z,32.52
2023-01-07T10:08:46.386Z,31.52
2023-01-07T10:11:45.647Z,31.14
2023-01-07T10:14:43.231Z,31.48
2023-01-07T10:17:16.017Z,32.27
2023-01-07T10:19:57.913Z,31.43
2023-01-07T10:22:37.443Z,31.03
2023-01-07T10:25:16.606Z,31.64
2023-01-07T10:27:49.062Z,31.62
2023-01-07T10:30:25.991Z,31.22
2023-01-07T10:33:02.908Z,31.06
2023-01-07T10:35:57.366Z,30.93
2023-01-07T10:38:34.390Z,30.66
2023-01-07T10:41:23.619Z,29.98
2023-01-07T10:44:16.731Z,31.23
2023-01-07T10:47:15.869Z,29.87
2023-01-07T10:49:45.597Z,30.54
2023-01-07T10:52:57.153Z,29.92
2023-01-07T10:55:32.867Z,31.21
2023-01-07T10:58:00.015Z,33.29
2023-01-07T11:00:27.176Z,32.38
2023-01-07T11:03:06.981Z,30.23
2023-01-07T11:05:38.838Z,29.65
2023-01-07T11:08:37.997Z,29.85
2023-01-07T11:11:06.830Z,30.50
2023-01-07T11:13:39.595Z,30.71
2023-01-07T11:16:20.733Z,32.45
2023-01-07T11:18:55.157Z,32.02
2023-01-07T11:21:43.359Z,31.15
2023-01-07T11:24:31.511Z,30.78
2023-01-07T11:27:06.867Z,30.89
2023-01-07T11:29:42.572Z,30.26
2023-01-07T11:32:27.786Z,31.03
2023-01-07T11:35:00.038Z,31.22
2023-01-07T11:37:38.987Z,31.26
2023-01-07T11:40:26.557Z,31.35
2023-01-07T11:43:02.952Z,30.87
2023-01-07T11:46:19.498Z,31.53
2023-01-07T11:48:52.964Z,31.92
2023-01-07T11:51:23.513Z,31.75
2023-01-07T11:56:22.122Z,32.08
2023-01-07T11:59:15.111Z,31.69
2023-01-07T12:01:47.599Z,31.92
2023-01-07T12:04:20.648Z,32.49
2023-01-07T12:06:51.093Z,32.93
2023-01-07T12:09:28.064Z,32.50
2023-01-07T12:12:18.353Z,32.92
2023-01-07T12:14:47.788Z,32.79
2023-01-07T12:17:18.764Z,32.80
2023-01-07T12:20:14.755Z,32.42
2023-01-07T12:23:03.437Z,32.42
2023-01-07T12:25:52.901Z,32.68
2023-01-07T12:28:48.731Z,32.52
2023-01-07T12:31:43.527Z,32.38
2023-01-07T12:34:35.636Z,32.57
2023-01-07T12:37:22.089Z,32.63
2023-01-07T12:39:56.954Z,33.00
2023-01-07T12:42:31.920Z,32.69
2023-01-07T12:45:07.162Z,32.69
2023-01-07T12:47:44.425Z,32.46
2023-01-07T12:50:34.864Z,32.60
2023-01-07T12:53:20.867Z,32.81
2023-01-07T12:55:57.012Z,32.55
2023-01-07T12:58:39.784Z,32.83
2023-01-07T13:04:10.625Z,32.69
2023-01-07T13:07:20.807Z,32.77
2023-01-07T13:09:57.342Z,33.28
2023-01-07T13:12:43.529Z,33.14
2023-01-07T13:15:36.431Z,33.21
2023-01-07T13:18:16.509Z,33.38
2023-01-07T13:21:05.295Z,33.35
2023-01-07T13:24:07.380Z,33.05
2023-01-07T13:26:43.612Z,33.23
2023-01-07T13:29:37.856Z,32.79
2023-01-07T13:32:25.424Z,33.30
2023-01-07T13:35:06.855Z,33.52
2023-01-07T13:38:10.302Z,33.48
2023-01-07T13:40:49.276Z,33.64
2023-01-07T13:43:58.222Z,33.69
2023-01-07T13:46:33.564Z,33.94
2023-01-07T13:49:00.691Z,34.09
2023-01-07T13:51:32.019Z,34.19
2023-01-07T13:53:59.256Z,33.93
2023-01-07T13:56:26.198Z,36.44
2023-01-07T13:58:58.443Z,34.11
2023-01-07T14:01:30.884Z,34.28
2023-01-07T14:04:03.978Z,34.30
2023-01-07T14:06:41.992Z,34.54
2023-01-07T14:09:11.170Z,34.51
2023-01-07T14:11:42.201Z,34.96
2023-01-07T14:14:21.235Z,34.92
2023-01-07T14:16:53.886Z,35.13
2023-01-07T14:19:30.187Z,34.95
2023-01-07T14:25:43.915Z,35.01
2023-01-07T14:28:41.362Z,35.29
2023-01-07T14:31:22.719Z,35.02
2023-01-07T14:33:58.932Z,35.39
2023-01-07T14:37:17.891Z,35.00
2023-01-07T14:39:46.774Z,35.14
2023-01-07T14:42:20.390Z,35.15
2023-01-07T14:44:50.995Z,35.41
2023-01-07T14:47:54.117Z,37.11
2023-01-07T14:50:56.993Z,36.70
2023-01-07T14:53:43.256Z,37.88
2023-01-07T14:56:16.404Z,36.74
2023-01-07T14:58:56.139Z,38.06
2023-01-07T15:01:36.997Z,38.17
2023-01-07T15:04:35.184Z,36.65
2023-01-07T15:07:04.260Z,38.37
2023-01-07T15:10:05.319Z,37.55
2023-01-07T15:12:56.468Z,36.62
2023-01-07T15:15:48.060Z,37.52
2023-01-07T15:18:16.069Z,36.72
2023-01-07T15:20:46.545Z,36.99
2023-01-07T15:23:28.721Z,37.09
2023-01-07T15:26:17.827Z,36.54
2023-01-07T15:28:57.445Z,36.47
2023-01-07T15:31:24.269Z,36.62
2023-01-07T15:34:29.862Z,36.37
2023-01-07T15:36:57.773Z,36.59
2023-01-07T15:39:29.715Z,36.78
2023-01-07T15:41:57.913Z,36.80
2023-01-07T15:44:39.559Z,36.51
2023-01-07T15:47:38.130Z,36.96
2023-01-07T15:50:37.010Z,36.63
2023-01-07T15:53:59.498Z,36.80
2023-01-07T15:56:26.683Z,37.40
2023-01-07T16:02:42.760Z,37.36
2023-01-07T16:05:10.469Z,37.68
2023-01-07T16:08:18.062Z,37.26
2023-01-07T16:11:09.082Z,37.46
2023-01-07T16:13:36.869Z,37.51
2023-01-07T16:16:06.750Z,37.97
2023-01-07T16:18:33.839Z,37.65
2023-01-07T16:21:28.362Z,37.51
2023-01-07T16:23:58.941Z,37.27
2023-01-07T16:26:55.480Z,37.17
2023-01-07T16:29:30.566Z,37.38
2023-01-07T16:31:59.348Z,37.48
2023-01-07T16:34:26.175Z,37.52
2023-01-07T16:36:58.810Z,37.10
2023-01-07T16:39:34.246Z,37.15
2023-01-07T16:42:20.784Z,37.09
2023-01-07T16:44:49.812Z,37.22
2023-01-07T16:47:27.239Z,36.79
2023-01-07T16:50:15.838Z,36.88
2023-01-07T16:55:44.691Z,36.99
2023-01-07T16:58:26.979Z,37.31
2023-01-07T17:00:56.509Z,37.19
2023-01-07T17:03:25.440Z,37.47
2023-01-07T17:06:08.038Z,37.21
2023-01-07T17:08:36.871Z,37.54
2023-01-07T17:11:23.152Z,37.72
2023-01-07T17:13:50.706Z,38.02
2023-01-07T17:16:27.027Z,37.82
2023-01-07T17:18:59.063Z,37.73
2023-01-07T17:22:02.411Z,37.98
2023-01-07T17:24:29.633Z,38.22
2023-01-07T17:27:00.662Z,38.11
2023-01-07T17:29:35.572Z,38.28
2023-01-07T17:32:04.629Z,38.38
2023-01-07T17:34:31.749Z,38.67
2023-01-07T17:36:58.763Z,38.30
2023-01-07T17:39:25.642Z,38.73
2023-01-07T17:42:11.190Z,38.92
2023-01-07T17:44:38.087Z,38.70
2023-01-07T17:47:24.874Z,38.68
2023-01-07T17:52:36.636Z,39.05
2023-01-07T17:55:03.688Z,39.09
2023-01-07T17:57:30.587Z,39.10
2023-01-07T17:59:58.179Z,39.12
2023-01-07T18:02:31.475Z,39.13
2023-01-07T18:04:59.507Z,39.22
2023-01-07T18:07:26.691Z,39.08
2023-01-07T18:12:40.388Z,39.07
2023-01-07T18:15:20.188Z,39.25
2023-01-07T18:17:57.535Z,39.38
2023-01-07T18:20:25.419Z,39.48
2023-01-07T18:23:17.888Z,39.24
2023-01-07T18:25:45.382Z,39.38
2023-01-07T18:28:13.306Z,39.49
2023-01-07T18:30:41.612Z,39.67
2023-01-07T18:33:29.114Z,39.76
2023-01-07T18:35:56.422Z,39.40
2023-01-07T18:38:27.666Z,39.84
2023-01-07T18:40:55.800Z,39.88
2023-01-07T18:43:22.870Z,40.09
2023-01-07T18:45:49.903Z,40.38
2023-01-07T18:48:22.784Z,40.19
2023-01-07T18:50:50.320Z,40.22
2023-01-07T18:53:22.583Z,40.17
2023-01-07T18:56:01.733Z,40.12
2023-01-07T18:58:28.987Z,40.15
2023-01-07T19:00:56.263Z,40.45
2023-01-07T19:03:26.475Z,40.34
2023-01-07T19:05:53.736Z,40.41
2023-01-07T19:08:21.282Z,40.74
2023-01-07T19:10:49.948Z,40.69
2023-01-07T19:13:17.867Z,40.92
2023-01-07T19:15:45.429Z,41.04
2023-01-07T19:18:30.887Z,41.35
2023-01-07T19:21:01.978Z,41.30
2023-01-07T19:23:32.050Z,41.06
2023-01-07T19:26:04.835Z,41.53
2023-01-07T19:28:33.214Z,41.34
2023-01-07T19:31:08.679Z,41.42
2023-01-07T19:33:37.906Z,41.43
2023-01-07T19:36:10.934Z,41.52
2023-01-07T19:38:42.702Z,41.67
2023-01-07T19:41:46.864Z,42.00
2023-01-07T19:44:17.756Z,42.21
2023-01-07T19:46:45.210Z,41.91
2023-01-07T19:52:23.492Z,42.34
2023-01-07T19:54:50.495Z,42.07
2023-01-07T19:57:18.033Z,42.12
2023-01-07T19:59:48.348Z,41.77
2023-01-07T20:02:16.480Z,42.05
2023-01-07T20:04:43.564Z,41.85
2023-01-07T20:07:15.293Z,42.11
2023-01-07T20:09:43.209Z,42.54
2023-01-07T20:12:12.667Z,42.23
2023-01-07T20:14:42.269Z,42.57
2023-01-07T20:17:09.159Z,42.89
2023-01-07T20:19:38.931Z,42.39
2023-01-07T20:22:05.882Z,42.25
2023-01-07T20:24:37.409Z,42.60
2023-01-07T20:27:11.101Z,42.49
2023-01-07T20:29:38.820Z,42.69
2023-01-07T20:32:10.569Z,42.87
2023-01-07T20:34:38.132Z,43.02
2023-01-07T20:37:05.657Z,42.66
2023-01-07T20:42:53.932Z,42.95
2023-01-07T20:45:47.194Z,43.31
2023-01-07T20:48:18.543Z,43.27
2023-01-07T20:50:45.840Z,43.09
2023-01-07T20:53:53.158Z,43.26
2023-01-07T20:56:26.342Z,43.38
2023-01-07T20:59:11.895Z,42.97
2023-01-07T21:01:39.622Z,43.20
2023-01-07T21:04:09.601Z,43.01
2023-01-07T21:06:36.758Z,42.96
2023-01-07T21:09:03.823Z,42.85
2023-01-07T21:11:30.775Z,42.86
2023-01-07T21:14:16.281Z,43.16
2023-01-07T21:16:43.183Z,43.20
2023-01-07T21:19:11.103Z,43.14
2023-01-07T21:21:38.044Z,43.78
2023-01-07T21:24:12.014Z,43.67
2023-01-07T21:29:24.563Z,43.57
2023-01-07T21:31:53.623Z,43.57
2023-01-07T21:34:21.281Z,43.81
2023-01-07T21:36:51.275Z,43.64
2023-01-07T21:39:18.869Z,43.37
2023-01-07T21:41:46.756Z,43.64
2023-01-07T21:44:14.767Z,44.15
2023-01-07T21:46:41.958Z,43.87
2023-01-07T21:49:13.303Z,43.79
2023-01-07T21:51:40.895Z,43.84
2023-01-07T21:54:07.822Z,43.86
2023-01-07T21:56:35.059Z,43.88
2023-01-07T21:59:04.083Z,43.67
2023-01-07T22:01:31.218Z,43.68
2023-01-07T22:04:08.492Z,43.92
2023-01-07T22:06:42.285Z,43.81
2023-01-07T22:12:49.457Z,43.71
2023-01-07T22:15:33.439Z,44.00
2023-01-07T22:18:56.487Z,43.86
2023-01-07T22:21:39.039Z,43.93
2023-01-07T22:24:15.289Z,44.04
2023-01-07T22:27:01.669Z,44.29
2023-01-07T22:29:31.199Z,44.21
2023-01-07T22:32:06.776Z,44.25
2023-01-07T22:34:43.033Z,44.58
2023-01-07T22:38:04.636Z,44.92
2023-01-07T22:40:39.250Z,45.95
2023-01-07T22:43:14.047Z,46.74
2023-01-07T22:45:50.009Z,46.95
2023-01-07T22:48:21.003Z,47.51
2023-01-07T22:51:30.115Z,48.87
2023-01-07T22:53:58.938Z,48.51
2023-01-07T23:00:53.299Z,50.03
2023-01-07T23:03:22.129Z,49.58
2023-01-07T23:05:53.559Z,49.22
2023-01-07T23:08:24.471Z,49.47
2023-01-07T23:10:51.655Z,49.74
2023-01-07T23:13:18.855Z,50.10
2023-01-07T23:15:48.740Z,50.63
2023-01-07T23:18:16.582Z,50.71
2023-01-07T23:20:44.055Z,50.41
2023-01-07T23:23:13.116Z,50.87
2023-01-07T23:25:53.521Z,50.74
2023-01-07T23:28:23.482Z,50.91
2023-01-07T23:30:52.618Z,50.17
2023-01-07T23:33:19.659Z,50.49
2023-01-07T23:35:46.621Z,49.99
2023-01-07T23:38:19.104Z,50.56
2023-01-07T23:41:07.800Z,51.42
2023-01-07T23:43:35.661Z,50.58
2023-01-07T23:46:08.087Z,50.28
2023-01-07T23:48:56.916Z,50.86
2023-01-07T23:57:17.661Z,50.42
2023-01-07T23:59:47.269Z,50.38
